sensor_id;sensor_type;location;lat;lon;timestamp;P1;durP1;ratioP1;P2;durP2;ratioP2
27939;SDS011;15275;51.716;14.324;2023-04-16T00:02:19;8.95;;;6.93;;
27939;SDS011;15275;51.716;14.324;2023-04-16T00:04:45;8.00;;;6.20;;
27939;SDS011;15275;51.716;14.324;2023-04-16T00:07:11;11.45;;;7.07;;
27939;SDS011;15275;51.716;14.324;2023-04-16T00:09:37;9.90;;;6.95;;
27939;SDS011;15275;51.716;14.324;2023-04-16T00:12:03;10.07;;;7.18;;
27939;SDS011;15275;51.716;14.324;2023-04-16T00:14:30;9.40;;;7.22;;
27939;SDS011;15275;51.716;14.324;2023-04-16T00:16:56;10.27;;;8.02;;
27939;SDS011;15275;51.716;14.324;2023-04-16T00:19:22;11.93;;;8.57;;
27939;SDS011;15275;51.716;14.324;2023-04-16T00:21:48;11.98;;;7.90;;
27939;SDS011;15275;51.716;14.324;2023-04-16T00:24:14;10.43;;;7.15;;
27939;SDS011;15275;51.716;14.324;2023-04-16T00:26:40;8.48;;;6.75;;
27939;SDS011;15275;51.716;14.324;2023-04-16T00:29:08;8.70;;;6.40;;
27939;SDS011;15275;51.716;14.324;2023-04-16T00:31:33;8.63;;;6.13;;
27939;SDS011;15275;51.716;14.324;2023-04-16T00:34:00;8.93;;;6.97;;
27939;SDS011;15275;51.716;14.324;2023-04-16T00:36:26;9.15;;;7.03;;
27939;SDS011;15275;51.716;14.324;2023-04-16T00:38:52;8.73;;;6.50;;
27939;SDS011;15275;51.716;14.324;2023-04-16T00:41:20;17.40;;;7.32;;
27939;SDS011;15275;51.716;14.324;2023-04-16T00:43:47;8.80;;;6.78;;
27939;SDS011;15275;51.716;14.324;2023-04-16T00:46:14;10.82;;;7.25;;
27939;SDS011;15275;51.716;14.324;2023-04-16T00:48:41;9.23;;;6.78;;
27939;SDS011;15275;51.716;14.324;2023-04-16T00:51:08;10.77;;;7.40;;
27939;SDS011;15275;51.716;14.324;2023-04-16T00:53:34;11.60;;;8.25;;
27939;SDS011;15275;51.716;14.324;2023-04-16T00:56:01;11.38;;;8.20;;
27939;SDS011;15275;51.716;14.324;2023-04-16T00:58:30;12.23;;;8.32;;
27939;SDS011;15275;51.716;14.324;2023-04-16T01:00:58;9.43;;;6.88;;
27939;SDS011;15275;51.716;14.324;2023-04-16T01:03:24;9.05;;;6.63;;
27939;SDS011;15275;51.716;14.324;2023-04-16T01:06:08;9.23;;;6.70;;
27939;SDS011;15275;51.716;14.324;2023-04-16T01:08:35;8.07;;;6.70;;
27939;SDS011;15275;51.716;14.324;2023-04-16T01:11:01;9.27;;;6.40;;
27939;SDS011;15275;51.716;14.324;2023-04-16T01:13:27;8.65;;;6.50;;
27939;SDS011;15275;51.716;14.324;2023-04-16T01:15:53;9.95;;;6.65;;
27939;SDS011;15275;51.716;14.324;2023-04-16T01:18:19;9.50;;;6.97;;
27939;SDS011;15275;51.716;14.324;2023-04-16T01:20:46;9.95;;;7.22;;
27939;SDS011;15275;51.716;14.324;2023-04-16T01:23:16;11.27;;;7.65;;
27939;SDS011;15275;51.716;14.324;2023-04-16T01:25:43;11.73;;;7.68;;
27939;SDS011;15275;51.716;14.324;2023-04-16T01:28:09;13.57;;;8.65;;
27939;SDS011;15275;51.716;14.324;2023-04-16T01:30:35;25.08;;;16.25;;
27939;SDS011;15275;51.716;14.324;2023-04-16T01:33:01;36.33;;;19.60;;
27939;SDS011;15275;51.716;14.324;2023-04-16T01:35:27;28.85;;;16.17;;
27939;SDS011;15275;51.716;14.324;2023-04-16T01:37:53;17.83;;;12.45;;
27939;SDS011;15275;51.716;14.324;2023-04-16T01:40:19;13.23;;;9.88;;
27939;SDS011;15275;51.716;14.324;2023-04-16T01:42:44;13.95;;;8.77;;
27939;SDS011;15275;51.716;14.324;2023-04-16T01:45:10;19.88;;;11.63;;
27939;SDS011;15275;51.716;14.324;2023-04-16T01:47:36;19.67;;;10.73;;
27939;SDS011;15275;51.716;14.324;2023-04-16T01:50:03;27.25;;;14.38;;
27939;SDS011;15275;51.716;14.324;2023-04-16T01:52:29;20.35;;;12.07;;
27939;SDS011;15275;51.716;14.324;2023-04-16T01:54:55;19.60;;;12.88;;
27939;SDS011;15275;51.716;14.324;2023-04-16T01:57:21;22.70;;;14.88;;
27939;SDS011;15275;51.716;14.324;2023-04-16T01:59:48;14.52;;;10.02;;
27939;SDS011;15275;51.716;14.324;2023-04-16T02:02:14;11.23;;;6.97;;
27939;SDS011;15275;51.716;14.324;2023-04-16T02:04:41;11.55;;;7.10;;
27939;SDS011;15275;51.716;14.324;2023-04-16T02:07:10;12.00;;;7.88;;
27939;SDS011;15275;51.716;14.324;2023-04-16T02:09:37;9.43;;;6.57;;
27939;SDS011;15275;51.716;14.324;2023-04-16T02:12:04;9.27;;;6.57;;
27939;SDS011;15275;51.716;14.324;2023-04-16T02:14:31;12.57;;;6.95;;
27939;SDS011;15275;51.716;14.324;2023-04-16T02:16:58;15.27;;;9.07;;
27939;SDS011;15275;51.716;14.324;2023-04-16T02:19:24;15.35;;;9.65;;
27939;SDS011;15275;51.716;14.324;2023-04-16T02:21:51;13.88;;;9.52;;
27939;SDS011;15275;51.716;14.324;2023-04-16T02:24:18;15.68;;;9.43;;
27939;SDS011;15275;51.716;14.324;2023-04-16T02:26:45;13.80;;;9.95;;
27939;SDS011;15275;51.716;14.324;2023-04-16T02:29:11;10.25;;;7.28;;
27939;SDS011;15275;51.716;14.324;2023-04-16T02:31:37;9.68;;;6.88;;
27939;SDS011;15275;51.716;14.324;2023-04-16T02:34:03;8.20;;;6.43;;
27939;SDS011;15275;51.716;14.324;2023-04-16T02:36:30;8.95;;;6.72;;
27939;SDS011;15275;51.716;14.324;2023-04-16T02:38:57;8.43;;;6.43;;
27939;SDS011;15275;51.716;14.324;2023-04-16T02:41:23;7.57;;;5.57;;
27939;SDS011;15275;51.716;14.324;2023-04-16T02:43:49;7.75;;;6.05;;
27939;SDS011;15275;51.716;14.324;2023-04-16T02:46:15;10.43;;;6.88;;
27939;SDS011;15275;51.716;14.324;2023-04-16T02:48:41;11.02;;;7.47;;
27939;SDS011;15275;51.716;14.324;2023-04-16T02:51:06;9.48;;;7.43;;
27939;SDS011;15275;51.716;14.324;2023-04-16T02:53:33;10.95;;;7.38;;
27939;SDS011;15275;51.716;14.324;2023-04-16T02:55:58;10.32;;;7.07;;
27939;SDS011;15275;51.716;14.324;2023-04-16T02:58:24;9.55;;;6.95;;
27939;SDS011;15275;51.716;14.324;2023-04-16T03:00:51;10.93;;;6.75;;
27939;SDS011;15275;51.716;14.324;2023-04-16T03:03:18;10.65;;;7.72;;
27939;SDS011;15275;51.716;14.324;2023-04-16T03:05:45;13.57;;;7.43;;
27939;SDS011;15275;51.716;14.324;2023-04-16T03:08:11;11.43;;;7.68;;
27939;SDS011;15275;51.716;14.324;2023-04-16T03:10:37;9.38;;;7.05;;
27939;SDS011;15275;51.716;14.324;2023-04-16T03:13:03;8.40;;;5.65;;
27939;SDS011;15275;51.716;14.324;2023-04-16T03:15:30;8.10;;;6.45;;
27939;SDS011;15275;51.716;14.324;2023-04-16T03:17:56;7.55;;;5.90;;
27939;SDS011;15275;51.716;14.324;2023-04-16T03:20:22;8.00;;;6.18;;
27939;SDS011;15275;51.716;14.324;2023-04-16T03:22:48;9.32;;;6.97;;
27939;SDS011;15275;51.716;14.324;2023-04-16T03:25:16;17.17;;;6.97;;
27939;SDS011;15275;51.716;14.324;2023-04-16T03:27:43;10.05;;;7.07;;
27939;SDS011;15275;51.716;14.324;2023-04-16T03:30:12;10.18;;;6.93;;
27939;SDS011;15275;51.716;14.324;2023-04-16T03:32:40;15.80;;;8.80;;
27939;SDS011;15275;51.716;14.324;2023-04-16T03:35:07;14.35;;;7.15;;
27939;SDS011;15275;51.716;14.324;2023-04-16T03:37:33;18.77;;;8.35;;
27939;SDS011;15275;51.716;14.324;2023-04-16T03:40:00;14.85;;;7.90;;
27939;SDS011;15275;51.716;14.324;2023-04-16T03:42:26;11.02;;;7.40;;
27939;SDS011;15275;51.716;14.324;2023-04-16T03:44:52;13.57;;;8.43;;
27939;SDS011;15275;51.716;14.324;2023-04-16T03:47:20;11.18;;;7.63;;
27939;SDS011;15275;51.716;14.324;2023-04-16T03:49:46;10.80;;;7.05;;
27939;SDS011;15275;51.716;14.324;2023-04-16T03:52:12;9.98;;;6.53;;
27939;SDS011;15275;51.716;14.324;2023-04-16T03:54:38;10.15;;;7.20;;
27939;SDS011;15275;51.716;14.324;2023-04-16T03:57:04;12.60;;;7.32;;
27939;SDS011;15275;51.716;14.324;2023-04-16T03:59:30;12.75;;;8.23;;
27939;SDS011;15275;51.716;14.324;2023-04-16T04:01:55;17.00;;;8.32;;
27939;SDS011;15275;51.716;14.324;2023-04-16T04:04:21;15.85;;;7.43;;
27939;SDS011;15275;51.716;14.324;2023-04-16T04:06:47;18.67;;;7.72;;
27939;SDS011;15275;51.716;14.324;2023-04-16T04:09:13;15.95;;;8.18;;
27939;SDS011;15275;51.716;14.324;2023-04-16T04:11:40;10.52;;;7.10;;
27939;SDS011;15275;51.716;14.324;2023-04-16T04:14:07;11.13;;;7.50;;
27939;SDS011;15275;51.716;14.324;2023-04-16T04:16:33;14.57;;;6.85;;
27939;SDS011;15275;51.716;14.324;2023-04-16T04:18:59;9.57;;;6.88;;
27939;SDS011;15275;51.716;14.324;2023-04-16T04:21:26;10.23;;;7.10;;
27939;SDS011;15275;51.716;14.324;2023-04-16T04:23:52;10.13;;;7.07;;
27939;SDS011;15275;51.716;14.324;2023-04-16T04:26:18;10.18;;;7.68;;
27939;SDS011;15275;51.716;14.324;2023-04-16T04:28:45;11.10;;;7.32;;
27939;SDS011;15275;51.716;14.324;2023-04-16T04:31:11;9.77;;;7.47;;
27939;SDS011;15275;51.716;14.324;2023-04-16T04:33:38;10.35;;;7.35;;
27939;SDS011;15275;51.716;14.324;2023-04-16T04:36:04;10.20;;;6.68;;
27939;SDS011;15275;51.716;14.324;2023-04-16T04:38:30;11.48;;;8.20;;
27939;SDS011;15275;51.716;14.324;2023-04-16T04:40:56;9.63;;;6.57;;
27939;SDS011;15275;51.716;14.324;2023-04-16T04:43:23;10.63;;;7.57;;
27939;SDS011;15275;51.716;14.324;2023-04-16T04:45:49;11.90;;;8.30;;
27939;SDS011;15275;51.716;14.324;2023-04-16T04:48:15;12.80;;;7.57;;
27939;SDS011;15275;51.716;14.324;2023-04-16T04:50:41;19.13;;;8.23;;
27939;SDS011;15275;51.716;14.324;2023-04-16T04:53:08;11.77;;;7.78;;
27939;SDS011;15275;51.716;14.324;2023-04-16T04:55:38;28.02;;;8.48;;
27939;SDS011;15275;51.716;14.324;2023-04-16T04:58:05;13.23;;;8.07;;
27939;SDS011;15275;51.716;14.324;2023-04-16T05:00:32;18.25;;;8.90;;
27939;SDS011;15275;51.716;14.324;2023-04-16T05:03:02;31.35;;;8.20;;
27939;SDS011;15275;51.716;14.324;2023-04-16T05:05:30;29.35;;;8.55;;
27939;SDS011;15275;51.716;14.324;2023-04-16T05:07:56;26.45;;;9.27;;
27939;SDS011;15275;51.716;14.324;2023-04-16T05:10:22;29.92;;;8.30;;
27939;SDS011;15275;51.716;14.324;2023-04-16T05:12:48;40.30;;;9.57;;
27939;SDS011;15275;51.716;14.324;2023-04-16T05:15:14;25.75;;;8.68;;
27939;SDS011;15275;51.716;14.324;2023-04-16T05:17:40;34.22;;;9.05;;
27939;SDS011;15275;51.716;14.324;2023-04-16T05:20:07;42.00;;;8.63;;
27939;SDS011;15275;51.716;14.324;2023-04-16T05:22:33;28.80;;;9.02;;
27939;SDS011;15275;51.716;14.324;2023-04-16T05:24:59;20.77;;;7.82;;
27939;SDS011;15275;51.716;14.324;2023-04-16T05:27:25;22.88;;;8.35;;
27939;SDS011;15275;51.716;14.324;2023-04-16T05:29:51;30.30;;;8.77;;
27939;SDS011;15275;51.716;14.324;2023-04-16T05:32:17;28.95;;;9.25;;
27939;SDS011;15275;51.716;14.324;2023-04-16T05:34:43;18.92;;;8.40;;
27939;SDS011;15275;51.716;14.324;2023-04-16T05:37:09;17.70;;;9.05;;
27939;SDS011;15275;51.716;14.324;2023-04-16T05:39:34;20.20;;;8.68;;
27939;SDS011;15275;51.716;14.324;2023-04-16T05:42:00;22.70;;;8.68;;
27939;SDS011;15275;51.716;14.324;2023-04-16T05:44:26;18.00;;;9.43;;
27939;SDS011;15275;51.716;14.324;2023-04-16T05:46:52;18.95;;;8.70;;
27939;SDS011;15275;51.716;14.324;2023-04-16T05:49:18;16.88;;;9.38;;
27939;SDS011;15275;51.716;14.324;2023-04-16T05:51:44;13.68;;;9.02;;
27939;SDS011;15275;51.716;14.324;2023-04-16T05:54:10;19.05;;;10.13;;
27939;SDS011;15275;51.716;14.324;2023-04-16T05:56:35;16.65;;;8.70;;
27939;SDS011;15275;51.716;14.324;2023-04-16T05:59:01;12.40;;;8.68;;
27939;SDS011;15275;51.716;14.324;2023-04-16T06:01:27;17.98;;;9.70;;
27939;SDS011;15275;51.716;14.324;2023-04-16T06:03:53;18.73;;;9.57;;
27939;SDS011;15275;51.716;14.324;2023-04-16T06:06:18;14.75;;;9.23;;
27939;SDS011;15275;51.716;14.324;2023-04-16T06:08:44;13.85;;;9.38;;
27939;SDS011;15275;51.716;14.324;2023-04-16T06:11:10;15.05;;;9.98;;
27939;SDS011;15275;51.716;14.324;2023-04-16T06:13:36;13.68;;;9.10;;
27939;SDS011;15275;51.716;14.324;2023-04-16T06:16:03;14.00;;;9.23;;
27939;SDS011;15275;51.716;14.324;2023-04-16T06:18:29;14.10;;;9.48;;
27939;SDS011;15275;51.716;14.324;2023-04-16T06:20:55;13.60;;;9.07;;
27939;SDS011;15275;51.716;14.324;2023-04-16T06:23:22;14.35;;;9.90;;
27939;SDS011;15275;51.716;14.324;2023-04-16T06:25:48;13.85;;;9.60;;
27939;SDS011;15275;51.716;14.324;2023-04-16T06:28:14;12.52;;;9.13;;
27939;SDS011;15275;51.716;14.324;2023-04-16T06:30:40;16.92;;;9.90;;
27939;SDS011;15275;51.716;14.324;2023-04-16T06:33:06;13.82;;;9.50;;
27939;SDS011;15275;51.716;14.324;2023-04-16T06:35:32;11.63;;;8.38;;
27939;SDS011;15275;51.716;14.324;2023-04-16T06:37:57;15.18;;;9.90;;
27939;SDS011;15275;51.716;14.324;2023-04-16T06:40:23;12.60;;;8.95;;
27939;SDS011;15275;51.716;14.324;2023-04-16T06:42:49;13.48;;;9.60;;
27939;SDS011;15275;51.716;14.324;2023-04-16T06:45:15;12.48;;;9.25;;
27939;SDS011;15275;51.716;14.324;2023-04-16T06:47:41;13.68;;;8.90;;
27939;SDS011;15275;51.716;14.324;2023-04-16T06:50:07;11.45;;;8.90;;
27939;SDS011;15275;51.716;14.324;2023-04-16T06:52:33;12.65;;;8.48;;
27939;SDS011;15275;51.716;14.324;2023-04-16T06:54:59;12.70;;;8.45;;
27939;SDS011;15275;51.716;14.324;2023-04-16T06:57:25;12.13;;;8.75;;
27939;SDS011;15275;51.716;14.324;2023-04-16T06:59:51;13.55;;;9.27;;
27939;SDS011;15275;51.716;14.324;2023-04-16T07:02:17;13.57;;;9.35;;
27939;SDS011;15275;51.716;14.324;2023-04-16T07:04:43;13.30;;;9.15;;
27939;SDS011;15275;51.716;14.324;2023-04-16T07:07:09;12.35;;;8.63;;
27939;SDS011;15275;51.716;14.324;2023-04-16T07:09:35;12.45;;;8.93;;
27939;SDS011;15275;51.716;14.324;2023-04-16T07:12:00;12.38;;;8.45;;
27939;SDS011;15275;51.716;14.324;2023-04-16T07:14:26;12.55;;;8.68;;
27939;SDS011;15275;51.716;14.324;2023-04-16T07:16:52;12.65;;;9.05;;
27939;SDS011;15275;51.716;14.324;2023-04-16T07:19:18;12.27;;;8.77;;
27939;SDS011;15275;51.716;14.324;2023-04-16T07:21:45;11.43;;;8.05;;
27939;SDS011;15275;51.716;14.324;2023-04-16T07:24:10;13.57;;;9.40;;
27939;SDS011;15275;51.716;14.324;2023-04-16T07:26:36;14.73;;;9.60;;
27939;SDS011;15275;51.716;14.324;2023-04-16T07:29:02;13.30;;;9.18;;
27939;SDS011;15275;51.716;14.324;2023-04-16T07:31:28;14.25;;;8.32;;
27939;SDS011;15275;51.716;14.324;2023-04-16T07:33:54;13.35;;;8.88;;
27939;SDS011;15275;51.716;14.324;2023-04-16T07:36:19;11.55;;;8.32;;
27939;SDS011;15275;51.716;14.324;2023-04-16T07:38:45;10.32;;;7.03;;
27939;SDS011;15275;51.716;14.324;2023-04-16T07:41:11;13.23;;;9.57;;
27939;SDS011;15275;51.716;14.324;2023-04-16T07:43:37;12.70;;;8.82;;
27939;SDS011;15275;51.716;14.324;2023-04-16T07:46:03;11.82;;;8.32;;
27939;SDS011;15275;51.716;14.324;2023-04-16T07:48:29;11.02;;;7.28;;
27939;SDS011;15275;51.716;14.324;2023-04-16T07:50:55;11.10;;;7.65;;
27939;SDS011;15275;51.716;14.324;2023-04-16T07:53:21;9.98;;;6.85;;
27939;SDS011;15275;51.716;14.324;2023-04-16T07:55:47;9.55;;;6.60;;
27939;SDS011;15275;51.716;14.324;2023-04-16T07:58:13;8.85;;;6.53;;
27939;SDS011;15275;51.716;14.324;2023-04-16T08:00:39;8.48;;;6.28;;
27939;SDS011;15275;51.716;14.324;2023-04-16T08:03:05;8.45;;;5.93;;
27939;SDS011;15275;51.716;14.324;2023-04-16T08:05:30;9.57;;;6.57;;
27939;SDS011;15275;51.716;14.324;2023-04-16T08:07:56;8.70;;;5.95;;
27939;SDS011;15275;51.716;14.324;2023-04-16T08:10:22;8.77;;;6.28;;
27939;SDS011;15275;51.716;14.324;2023-04-16T08:12:48;7.47;;;5.47;;
27939;SDS011;15275;51.716;14.324;2023-04-16T08:15:13;8.25;;;6.10;;
27939;SDS011;15275;51.716;14.324;2023-04-16T08:17:39;6.40;;;4.95;;
27939;SDS011;15275;51.716;14.324;2023-04-16T08:20:05;7.45;;;5.40;;
27939;SDS011;15275;51.716;14.324;2023-04-16T08:22:32;7.55;;;5.68;;
27939;SDS011;15275;51.716;14.324;2023-04-16T08:24:58;6.18;;;4.70;;
27939;SDS011;15275;51.716;14.324;2023-04-16T08:27:23;5.63;;;4.22;;
27939;SDS011;15275;51.716;14.324;2023-04-16T08:29:49;5.97;;;3.95;;
27939;SDS011;15275;51.716;14.324;2023-04-16T08:32:15;5.32;;;3.92;;
27939;SDS011;15275;51.716;14.324;2023-04-16T08:34:41;5.50;;;3.97;;
27939;SDS011;15275;51.716;14.324;2023-04-16T08:37:07;6.13;;;4.78;;
27939;SDS011;15275;51.716;14.324;2023-04-16T08:39:33;4.82;;;4.13;;
27939;SDS011;15275;51.716;14.324;2023-04-16T08:41:59;5.60;;;4.70;;
27939;SDS011;15275;51.716;14.324;2023-04-16T08:44:33;5.75;;;4.60;;
27939;SDS011;15275;51.716;14.324;2023-04-16T08:47:01;6.00;;;4.93;;
27939;SDS011;15275;51.716;14.324;2023-04-16T08:49:27;8.10;;;5.45;;
27939;SDS011;15275;51.716;14.324;2023-04-16T08:51:54;5.13;;;4.20;;
27939;SDS011;15275;51.716;14.324;2023-04-16T08:54:30;7.85;;;5.00;;
27939;SDS011;15275;51.716;14.324;2023-04-16T08:57:25;9.70;;;5.15;;
27939;SDS011;15275;51.716;14.324;2023-04-16T08:59:57;7.50;;;4.50;;
27939;SDS011;15275;51.716;14.324;2023-04-16T09:02:25;7.07;;;4.82;;
27939;SDS011;15275;51.716;14.324;2023-04-16T09:04:52;7.57;;;5.80;;
27939;SDS011;15275;51.716;14.324;2023-04-16T09:07:19;6.78;;;5.05;;
27939;SDS011;15275;51.716;14.324;2023-04-16T09:09:47;8.38;;;5.75;;
27939;SDS011;15275;51.716;14.324;2023-04-16T09:12:14;9.30;;;6.22;;
27939;SDS011;15275;51.716;14.324;2023-04-16T09:14:41;7.57;;;5.82;;
27939;SDS011;15275;51.716;14.324;2023-04-16T09:17:08;7.78;;;5.60;;
27939;SDS011;15275;51.716;14.324;2023-04-16T09:19:35;7.57;;;6.03;;
27939;SDS011;15275;51.716;14.324;2023-04-16T09:22:00;6.50;;;4.55;;
27939;SDS011;15275;51.716;14.324;2023-04-16T09:24:27;4.90;;;4.03;;
27939;SDS011;15275;51.716;14.324;2023-04-16T09:26:53;5.50;;;4.45;;
27939;SDS011;15275;51.716;14.324;2023-04-16T09:29:38;4.95;;;4.25;;
27939;SDS011;15275;51.716;14.324;2023-04-16T09:32:06;5.28;;;4.28;;
27939;SDS011;15275;51.716;14.324;2023-04-16T09:34:34;4.65;;;4.05;;
27939;SDS011;15275;51.716;14.324;2023-04-16T09:37:18;6.82;;;5.13;;
27939;SDS011;15275;51.716;14.324;2023-04-16T09:39:45;6.65;;;5.30;;
27939;SDS011;15275;51.716;14.324;2023-04-16T09:42:24;6.53;;;5.30;;
27939;SDS011;15275;51.716;14.324;2023-04-16T09:45:00;6.72;;;5.38;;
27939;SDS011;15275;51.716;14.324;2023-04-16T09:47:40;6.90;;;5.70;;
27939;SDS011;15275;51.716;14.324;2023-04-16T09:50:07;7.72;;;5.93;;
27939;SDS011;15275;51.716;14.324;2023-04-16T09:52:37;5.40;;;4.57;;
27939;SDS011;15275;51.716;14.324;2023-04-16T09:55:03;6.88;;;5.47;;
27939;SDS011;15275;51.716;14.324;2023-04-16T09:57:30;5.63;;;4.78;;
27939;SDS011;15275;51.716;14.324;2023-04-16T10:02:30;7.95;;;5.20;;
27939;SDS011;15275;51.716;14.324;2023-04-16T10:04:58;5.68;;;5.07;;
27939;SDS011;15275;51.716;14.324;2023-04-16T10:07:27;7.38;;;5.35;;
27939;SDS011;15275;51.716;14.324;2023-04-16T10:09:54;5.97;;;5.30;;
27939;SDS011;15275;51.716;14.324;2023-04-16T10:12:20;5.50;;;4.88;;
27939;SDS011;15275;51.716;14.324;2023-04-16T10:14:46;5.50;;;4.57;;
27939;SDS011;15275;51.716;14.324;2023-04-16T10:17:12;5.97;;;5.10;;
27939;SDS011;15275;51.716;14.324;2023-04-16T10:19:38;6.72;;;5.13;;
27939;SDS011;15275;51.716;14.324;2023-04-16T10:22:05;6.53;;;4.95;;
27939;SDS011;15275;51.716;14.324;2023-04-16T10:24:31;6.70;;;5.70;;
27939;SDS011;15275;51.716;14.324;2023-04-16T10:26:58;6.00;;;5.18;;
27939;SDS011;15275;51.716;14.324;2023-04-16T10:29:25;6.53;;;4.97;;
27939;SDS011;15275;51.716;14.324;2023-04-16T10:31:54;5.38;;;4.85;;
27939;SDS011;15275;51.716;14.324;2023-04-16T10:34:21;5.32;;;4.60;;
27939;SDS011;15275;51.716;14.324;2023-04-16T10:36:52;6.15;;;4.97;;
27939;SDS011;15275;51.716;14.324;2023-04-16T10:39:19;6.93;;;5.13;;
27939;SDS011;15275;51.716;14.324;2023-04-16T10:42:05;7.95;;;6.22;;
27939;SDS011;15275;51.716;14.324;2023-04-16T10:44:35;7.82;;;5.53;;
27939;SDS011;15275;51.716;14.324;2023-04-16T10:47:02;7.43;;;6.15;;
27939;SDS011;15275;51.716;14.324;2023-04-16T10:49:36;8.35;;;6.72;;
27939;SDS011;15275;51.716;14.324;2023-04-16T10:52:11;7.68;;;5.90;;
27939;SDS011;15275;51.716;14.324;2023-04-16T10:54:41;8.93;;;6.88;;
27939;SDS011;15275;51.716;14.324;2023-04-16T10:57:08;12.45;;;7.65;;
27939;SDS011;15275;51.716;14.324;2023-04-16T10:59:41;8.23;;;6.30;;
27939;SDS011;15275;51.716;14.324;2023-04-16T11:02:11;7.32;;;5.80;;
27939;SDS011;15275;51.716;14.324;2023-04-16T11:04:43;7.78;;;5.70;;
27939;SDS011;15275;51.716;14.324;2023-04-16T11:07:46;7.32;;;5.82;;
27939;SDS011;15275;51.716;14.324;2023-04-16T11:10:11;6.38;;;5.45;;
27939;SDS011;15275;51.716;14.324;2023-04-16T11:12:38;6.43;;;5.63;;
27939;SDS011;15275;51.716;14.324;2023-04-16T11:15:13;7.18;;;5.75;;
27939;SDS011;15275;51.716;14.324;2023-04-16T11:17:44;8.45;;;6.15;;
27939;SDS011;15275;51.716;14.324;2023-04-16T11:20:16;6.20;;;5.38;;
27939;SDS011;15275;51.716;14.324;2023-04-16T11:22:49;5.63;;;5.03;;
27939;SDS011;15275;51.716;14.324;2023-04-16T11:27:50;6.38;;;5.30;;
27939;SDS011;15275;51.716;14.324;2023-04-16T11:30:17;5.38;;;4.70;;
27939;SDS011;15275;51.716;14.324;2023-04-16T11:32:52;5.78;;;4.25;;
27939;SDS011;15275;51.716;14.324;2023-04-16T11:35:18;5.18;;;3.90;;
27939;SDS011;15275;51.716;14.324;2023-04-16T11:37:44;4.47;;;3.88;;
27939;SDS011;15275;51.716;14.324;2023-04-16T11:40:12;4.68;;;3.88;;
27939;SDS011;15275;51.716;14.324;2023-04-16T11:42:39;4.15;;;3.45;;
27939;SDS011;15275;51.716;14.324;2023-04-16T11:45:06;3.95;;;3.50;;
27939;SDS011;15275;51.716;14.324;2023-04-16T11:47:47;4.13;;;3.70;;
27939;SDS011;15275;51.716;14.324;2023-04-16T11:50:27;3.55;;;3.00;;
27939;SDS011;15275;51.716;14.324;2023-04-16T11:52:54;5.53;;;3.70;;
27939;SDS011;15275;51.716;14.324;2023-04-16T11:55:22;3.90;;;3.25;;
27939;SDS011;15275;51.716;14.324;2023-04-16T11:57:49;4.28;;;3.38;;
27939;SDS011;15275;51.716;14.324;2023-04-16T12:00:15;4.10;;;3.45;;
27939;SDS011;15275;51.716;14.324;2023-04-16T12:02:42;4.03;;;3.63;;
27939;SDS011;15275;51.716;14.324;2023-04-16T12:05:31;4.38;;;3.78;;
27939;SDS011;15275;51.716;14.324;2023-04-16T12:08:03;3.90;;;3.53;;
27939;SDS011;15275;51.716;14.324;2023-04-16T12:10:35;3.58;;;3.00;;
27939;SDS011;15275;51.716;14.324;2023-04-16T12:13:17;3.75;;;3.38;;
27939;SDS011;15275;51.716;14.324;2023-04-16T12:15:47;5.10;;;3.17;;
27939;SDS011;15275;51.716;14.324;2023-04-16T12:18:15;3.58;;;3.28;;
27939;SDS011;15275;51.716;14.324;2023-04-16T12:20:43;3.42;;;3.05;;
27939;SDS011;15275;51.716;14.324;2023-04-16T12:23:10;4.55;;;3.47;;
27939;SDS011;15275;51.716;14.324;2023-04-16T12:25:46;3.88;;;2.95;;
27939;SDS011;15275;51.716;14.324;2023-04-16T12:28:14;3.03;;;2.72;;
27939;SDS011;15275;51.716;14.324;2023-04-16T12:30:51;4.72;;;2.78;;
27939;SDS011;15275;51.716;14.324;2023-04-16T12:33:17;2.83;;;2.53;;
27939;SDS011;15275;51.716;14.324;2023-04-16T12:35:43;3.65;;;2.95;;
27939;SDS011;15275;51.716;14.324;2023-04-16T12:38:09;3.88;;;3.00;;
27939;SDS011;15275;51.716;14.324;2023-04-16T12:40:36;3.42;;;2.50;;
27939;SDS011;15275;51.716;14.324;2023-04-16T12:43:02;3.17;;;2.60;;
27939;SDS011;15275;51.716;14.324;2023-04-16T12:45:28;4.05;;;2.88;;
27939;SDS011;15275;51.716;14.324;2023-04-16T12:47:54;3.50;;;2.60;;
27939;SDS011;15275;51.716;14.324;2023-04-16T12:50:20;3.30;;;2.97;;
27939;SDS011;15275;51.716;14.324;2023-04-16T12:52:46;3.28;;;2.90;;
27939;SDS011;15275;51.716;14.324;2023-04-16T12:55:12;3.70;;;2.95;;
27939;SDS011;15275;51.716;14.324;2023-04-16T12:57:39;3.15;;;2.83;;
27939;SDS011;15275;51.716;14.324;2023-04-16T13:00:05;3.42;;;2.92;;
27939;SDS011;15275;51.716;14.324;2023-04-16T13:02:32;2.90;;;2.40;;
27939;SDS011;15275;51.716;14.324;2023-04-16T13:04:58;2.97;;;2.67;;
27939;SDS011;15275;51.716;14.324;2023-04-16T13:07:24;2.75;;;2.45;;
27939;SDS011;15275;51.716;14.324;2023-04-16T13:09:50;2.45;;;2.25;;
27939;SDS011;15275;51.716;14.324;2023-04-16T13:12:16;5.07;;;2.28;;
27939;SDS011;15275;51.716;14.324;2023-04-16T13:14:42;3.00;;;2.10;;
27939;SDS011;15275;51.716;14.324;2023-04-16T13:17:09;1.90;;;1.70;;
27939;SDS011;15275;51.716;14.324;2023-04-16T13:19:35;1.65;;;1.50;;
27939;SDS011;15275;51.716;14.324;2023-04-16T13:22:00;2.13;;;1.50;;
27939;SDS011;15275;51.716;14.324;2023-04-16T13:24:26;3.35;;;1.65;;
27939;SDS011;15275;51.716;14.324;2023-04-16T13:26:52;1.55;;;1.30;;
27939;SDS011;15275;51.716;14.324;2023-04-16T13:29:18;1.85;;;1.27;;
27939;SDS011;15275;51.716;14.324;2023-04-16T13:31:45;1.58;;;1.40;;
27939;SDS011;15275;51.716;14.324;2023-04-16T13:34:11;1.38;;;1.27;;
27939;SDS011;15275;51.716;14.324;2023-04-16T13:36:37;1.10;;;1.00;;
27939;SDS011;15275;51.716;14.324;2023-04-16T13:39:03;1.95;;;1.30;;
27939;SDS011;15275;51.716;14.324;2023-04-16T13:41:34;1.60;;;1.50;;
27939;SDS011;15275;51.716;14.324;2023-04-16T13:44:03;1.55;;;1.40;;
27939;SDS011;15275;51.716;14.324;2023-04-16T13:46:29;1.52;;;1.42;;
27939;SDS011;15275;51.716;14.324;2023-04-16T13:48:55;1.60;;;1.50;;
27939;SDS011;15275;51.716;14.324;2023-04-16T13:51:21;1.50;;;1.40;;
27939;SDS011;15275;51.716;14.324;2023-04-16T13:53:47;2.33;;;1.55;;
27939;SDS011;15275;51.716;14.324;2023-04-16T13:56:13;2.38;;;1.80;;
27939;SDS011;15275;51.716;14.324;2023-04-16T13:58:39;1.65;;;1.55;;
27939;SDS011;15275;51.716;14.324;2023-04-16T14:01:05;2.00;;;1.80;;
27939;SDS011;15275;51.716;14.324;2023-04-16T14:03:32;1.70;;;1.35;;
27939;SDS011;15275;51.716;14.324;2023-04-16T14:06:00;2.03;;;1.45;;
27939;SDS011;15275;51.716;14.324;2023-04-16T14:08:27;1.55;;;1.20;;
27939;SDS011;15275;51.716;14.324;2023-04-16T14:10:53;1.10;;;0.98;;
27939;SDS011;15275;51.716;14.324;2023-04-16T14:13:19;1.52;;;1.30;;
27939;SDS011;15275;51.716;14.324;2023-04-16T14:15:45;1.50;;;1.38;;
27939;SDS011;15275;51.716;14.324;2023-04-16T14:18:11;2.17;;;1.27;;
27939;SDS011;15275;51.716;14.324;2023-04-16T14:20:37;1.80;;;1.40;;
27939;SDS011;15275;51.716;14.324;2023-04-16T14:23:04;1.63;;;1.45;;
27939;SDS011;15275;51.716;14.324;2023-04-16T14:25:30;1.85;;;1.65;;
27939;SDS011;15275;51.716;14.324;2023-04-16T14:27:59;1.52;;;1.30;;
27939;SDS011;15275;51.716;14.324;2023-04-16T14:30:26;2.17;;;1.50;;
27939;SDS011;15275;51.716;14.324;2023-04-16T14:32:51;2.35;;;1.98;;
27939;SDS011;15275;51.716;14.324;2023-04-16T14:35:17;1.92;;;1.63;;